KSDF Airport Diagram

We have created a template for each of the higher traffic airports in the vZID airspace. They include KCMH, KCRW, KCVG, KDAY, KIND, KLEX and KSDF. You wil find usefull information including the airport diagram, weather, and specific airport procedures.

KSDF Weather

[Source: ADDS]
METAR
KSDF 300656Z 28008KT 10SM FEW140 FEW180 BKN220 21/12 A2999 RMK AO2 SLP151 T02060122 =
TAF
KSDF 300520Z 3006/3112 22005KT P6SM FEW060 SCT120 SCT250 FM301700 27012G17KT P6SM SCT060 SCT250 FM302200 29011KT P6SM FEW070 SCT250 FM310100 VRB05KT P6SM FEW070 SCT250 =

SDF Operations

Calm Wind Configuration is runways 17L and 17R

Runway 17L typically departs north and east

Runway 17R typicall departs south and west

 

JSN Epic template designed by JoomlaShine.com